Time;durP1;ratioP1;P1;durP2;ratioP2;P2;SDS_P1;SDS_P2;PMS_P1;PMS_P2;Temp;Humidity;BMP_temperature;BMP_pressure;BME280_temperature;BME280_humidity;BME280_pressure;Samples;Min_cycle;Max_cycle;Signal;HPM_P1;HPM_P2
2021/04/24 00:00:08;;;;;;;7.65;4.90;;;5.30;99.90;;;;;;5035581;28;20207;-84
2021/04/24 00:02:36;;;;;;;5.60;3.75;;;5.20;99.90;;;;;;5035543;28;20221;-84
2021/04/24 00:05:06;;;;;;;5.75;3.65;;;5.20;99.90;;;;;;5015776;28;20192;-84
2021/04/24 00:07:32;;;;;;;7.45;3.58;;;5.10;99.90;;;;;;5015335;28;20291;-83
2021/04/24 00:09:58;;;;;;;6.28;4.70;;;5.10;99.90;;;;;;5026503;28;20212;-84
2021/04/24 00:12:25;;;;;;;6.10;3.80;;;5.10;99.90;;;;;;5059860;28;20196;-83
2021/04/24 00:14:51;;;;;;;11.82;3.85;;;5.10;99.90;;;;;;5059565;28;20169;-83
2021/04/24 00:17:17;;;;;;;14.07;4.82;;;5.10;99.90;;;;;;5059966;28;20180;-84
2021/04/24 00:19:44;;;;;;;5.22;3.53;;;5.00;99.90;;;;;;5056826;28;20219;-83
2021/04/24 00:22:11;;;;;;;5.75;4.38;;;5.00;99.90;;;;;;5051910;28;20188;-83
2021/04/24 00:24:38;;;;;;;6.75;3.38;;;5.00;99.90;;;;;;5051526;28;20193;-84
2021/04/24 00:27:05;;;;;;;7.03;3.53;;;4.90;99.90;;;;;;5051714;28;20220;-84
2021/04/24 00:29:33;;;;;;;6.78;4.22;;;5.00;99.90;;;;;;5051388;28;20231;-84
2021/04/24 00:31:59;;;;;;;6.32;3.65;;;4.90;99.90;;;;;;5048637;28;20195;-84
2021/04/24 00:34:25;;;;;;;5.35;3.55;;;4.80;99.90;;;;;;5037089;28;20246;-84
2021/04/24 00:36:52;;;;;;;7.43;3.35;;;4.80;99.90;;;;;;5034166;28;20195;-84
2021/04/24 00:39:19;;;;;;;4.82;3.45;;;4.80;99.90;;;;;;5034963;28;20214;-84
2021/04/24 00:41:45;;;;;;;13.38;3.63;;;4.70;99.90;;;;;;5040268;28;20192;-83
2021/04/24 00:44:11;;;;;;;5.13;3.25;;;4.60;99.90;;;;;;5035736;28;20191;-84
2021/04/24 00:46:38;;;;;;;8.15;3.45;;;4.60;99.90;;;;;;5034222;28;20247;-84
2021/04/24 00:49:04;;;;;;;6.18;3.53;;;4.60;99.90;;;;;;5033769;28;20211;-84
2021/04/24 00:51:30;;;;;;;5.85;3.67;;;4.50;99.90;;;;;;5033890;28;20193;-84
2021/04/24 00:53:57;;;;;;;6.22;2.72;;;4.40;99.90;;;;;;5034223;28;20203;-84
2021/04/24 00:56:24;;;;;;;5.22;3.00;;;4.40;99.90;;;;;;5033938;28;20187;-84
2021/04/24 00:58:50;;;;;;;21.33;4.82;;;4.40;99.90;;;;;;5034681;28;20207;-84
2021/04/24 01:01:17;;;;;;;7.30;3.67;;;4.40;99.90;;;;;;5034233;28;20571;-84
2021/04/24 01:03:45;;;;;;;4.05;2.67;;;4.40;99.90;;;;;;5033482;28;20188;-84
2021/04/24 01:06:11;;;;;;;5.40;3.33;;;4.30;99.90;;;;;;5034147;28;20202;-84
2021/04/24 01:08:37;;;;;;;5.95;3.20;;;4.20;99.90;;;;;;5033608;28;20194;-84
2021/04/24 01:11:04;;;;;;;10.70;3.83;;;4.20;99.90;;;;;;5033934;28;20568;-84
2021/04/24 01:13:31;;;;;;;9.15;3.40;;;4.20;99.90;;;;;;5033854;28;20193;-84
2021/04/24 01:15:57;;;;;;;6.20;3.33;;;4.30;99.90;;;;;;5033678;28;20195;-84
2021/04/24 01:18:24;;;;;;;12.98;3.58;;;4.20;99.90;;;;;;5033750;28;20245;-84
2021/04/24 01:20:53;;;;;;;9.05;3.42;;;4.10;99.90;;;;;;5033908;28;20198;-84
2021/04/24 01:23:21;;;;;;;7.32;2.67;;;4.10;99.90;;;;;;5033503;28;20188;-84
2021/04/24 01:25:48;;;;;;;5.22;3.40;;;4.00;99.90;;;;;;5033517;28;20197;-84
2021/04/24 01:28:14;;;;;;;6.40;3.00;;;4.00;99.90;;;;;;5033119;28;20190;-84
2021/04/24 01:30:43;;;;;;;6.22;3.28;;;4.00;99.90;;;;;;5033092;28;20570;-84
2021/04/24 01:33:12;;;;;;;5.07;2.90;;;4.00;99.90;;;;;;5032399;28;20219;-83
2021/04/24 01:35:40;;;;;;;5.28;3.25;;;4.00;99.90;;;;;;5033277;28;20197;-84
2021/04/24 01:38:07;;;;;;;5.32;3.72;;;3.90;99.90;;;;;;5032752;28;20715;-84
2021/04/24 01:40:35;;;;;;;9.25;3.53;;;3.80;99.90;;;;;;5029393;28;20187;-83
2021/04/24 01:43:02;;;;;;;5.32;3.25;;;3.70;99.90;;;;;;5033294;28;20674;-84
2021/04/24 01:45:29;;;;;;;8.25;3.75;;;3.70;99.90;;;;;;5032956;28;20325;-84
2021/04/24 01:47:55;;;;;;;5.60;3.17;;;3.70;99.90;;;;;;5039593;28;20186;-84
2021/04/24 01:50:24;;;;;;;6.15;3.42;;;3.60;99.90;;;;;;5032956;28;20703;-84
2021/04/24 01:52:51;;;;;;;5.78;3.22;;;3.50;99.90;;;;;;5032842;28;20187;-84
2021/04/24 01:55:20;;;;;;;4.38;2.65;;;3.50;99.90;;;;;;5033142;28;20207;-84
2021/04/24 01:57:49;;;;;;;6.63;3.95;;;3.40;99.90;;;;;;5032970;28;20196;-84
2021/04/24 02:00:21;;;;;;;7.72;3.33;;;3.40;99.90;;;;;;5033072;28;20570;-84
2021/04/24 02:02:47;;;;;;;4.95;4.07;;;3.30;99.90;;;;;;5033079;28;20245;-84
2021/04/24 02:05:15;;;;;;;9.00;4.50;;;3.30;99.90;;;;;;5032787;28;20237;-84
2021/04/24 02:07:42;;;;;;;6.88;3.35;;;3.20;99.90;;;;;;5032875;28;20548;-84
2021/04/24 02:10:10;;;;;;;6.28;3.83;;;3.20;99.90;;;;;;5032594;28;20659;-84
2021/04/24 02:12:37;;;;;;;4.93;3.15;;;3.10;99.90;;;;;;5032948;28;20203;-84
2021/04/24 02:15:06;;;;;;;6.07;3.75;;;3.10;99.90;;;;;;5033228;28;20651;-83
2021/04/24 02:17:33;;;;;;;5.32;4.05;;;3.00;99.90;;;;;;5033347;28;20654;-83
2021/04/24 02:19:59;;;;;;;9.20;3.80;;;2.90;99.90;;;;;;5033692;28;20192;-83
2021/04/24 02:22:26;;;;;;;4.85;3.42;;;2.80;99.90;;;;;;5033112;28;20193;-83
2021/04/24 02:24:54;;;;;;;5.63;3.08;;;2.70;99.90;;;;;;5033401;28;20194;-82
2021/04/24 02:27:21;;;;;;;6.47;4.45;;;2.60;99.90;;;;;;5036465;28;20606;-84
2021/04/24 02:29:49;;;;;;;6.90;4.30;;;2.60;99.90;;;;;;5037472;28;20241;-83
2021/04/24 02:32:17;;;;;;;6.85;4.25;;;2.50;99.90;;;;;;5042560;28;20194;-84
2021/04/24 02:34:46;;;;;;;6.75;4.03;;;2.40;99.90;;;;;;5033981;28;20193;-83
2021/04/24 02:37:13;;;;;;;4.68;3.65;;;2.30;99.90;;;;;;5032998;28;20185;-84
2021/04/24 02:39:43;;;;;;;9.48;4.65;;;2.20;99.90;;;;;;5032576;28;20188;-84
2021/04/24 02:42:12;;;;;;;6.35;3.53;;;2.30;99.90;;;;;;5032701;28;20246;-84
2021/04/24 02:44:39;;;;;;;10.95;4.30;;;2.20;99.90;;;;;;5033488;28;20243;-84
2021/04/24 02:47:06;;;;;;;5.32;3.13;;;2.20;99.90;;;;;;5036539;28;20185;-83
2021/04/24 02:49:33;;;;;;;5.95;4.07;;;2.10;99.90;;;;;;5036423;28;20216;-84
2021/04/24 02:52:00;;;;;;;10.18;4.82;;;2.10;99.90;;;;;;5036236;28;20638;-83
2021/04/24 02:54:27;;;;;;;7.68;4.28;;;2.00;99.90;;;;;;5036630;28;20201;-84
2021/04/24 02:56:53;;;;;;;9.55;4.93;;;2.00;99.90;;;;;;5036244;28;20278;-83
2021/04/24 02:59:21;;;;;;;9.98;4.72;;;2.20;99.90;;;;;;5036573;28;20185;-84
2021/04/24 03:01:48;;;;;;;9.10;4.75;;;2.10;99.90;;;;;;5035983;28;20181;-84
2021/04/24 03:04:14;;;;;;;9.45;5.85;;;2.20;99.90;;;;;;5036513;28;20189;-84
2021/04/24 03:06:42;;;;;;;9.15;4.78;;;2.20;99.90;;;;;;5035799;28;20590;-84
2021/04/24 03:09:09;;;;;;;17.92;4.28;;;2.20;99.90;;;;;;5036168;28;20190;-84
2021/04/24 03:11:35;;;;;;;6.85;4.15;;;2.10;99.90;;;;;;5035553;28;20963;-84
2021/04/24 03:14:02;;;;;;;9.00;5.00;;;2.20;99.90;;;;;;5034616;28;20487;-84
2021/04/24 03:16:28;;;;;;;8.10;5.60;;;2.20;99.90;;;;;;5035656;28;20197;-84
2021/04/24 03:18:55;;;;;;;8.40;4.75;;;2.20;99.90;;;;;;5035560;28;20211;-84
2021/04/24 03:21:21;;;;;;;10.35;5.00;;;2.10;99.90;;;;;;5035475;28;20184;-85
2021/04/24 03:23:49;;;;;;;8.32;5.85;;;2.20;99.90;;;;;;5035748;28;20185;-83
2021/04/24 03:26:15;;;;;;;9.52;5.38;;;2.20;99.90;;;;;;5031758;28;20197;-83
2021/04/24 03:28:42;;;;;;;9.60;5.05;;;2.20;99.90;;;;;;5035728;28;20193;-84
2021/04/24 03:31:08;;;;;;;9.75;4.05;;;2.20;99.90;;;;;;5034773;28;20213;-83
2021/04/24 03:33:35;;;;;;;11.15;5.53;;;2.10;99.90;;;;;;5034388;28;20821;-83
2021/04/24 03:36:02;;;;;;;7.28;4.20;;;2.10;99.90;;;;;;5035222;28;20223;-83
2021/04/24 03:38:28;;;;;;;8.77;5.13;;;2.10;99.90;;;;;;5034106;28;20435;-83
2021/04/24 03:40:56;;;;;;;11.45;4.30;;;2.10;99.90;;;;;;5035117;28;20189;-83
2021/04/24 03:43:22;;;;;;;9.73;4.65;;;2.10;99.90;;;;;;5035165;28;20193;-83
2021/04/24 03:45:48;;;;;;;11.15;4.75;;;2.10;99.90;;;;;;5035516;28;20189;-82
2021/04/24 03:48:14;;;;;;;11.60;5.57;;;2.00;99.90;;;;;;5040081;28;20448;-83
2021/04/24 03:50:41;;;;;;;9.77;5.30;;;2.00;99.90;;;;;;5035796;28;20217;-84
2021/04/24 03:53:07;;;;;;;6.63;4.40;;;2.00;99.90;;;;;;5035102;28;20649;-83
2021/04/24 03:55:34;;;;;;;10.15;5.18;;;1.90;99.90;;;;;;5034801;28;20188;-83
2021/04/24 03:58:01;;;;;;;9.93;4.70;;;1.90;99.90;;;;;;5033219;28;20426;-83
2021/04/24 04:00:30;;;;;;;13.43;5.80;;;1.80;99.90;;;;;;5034667;28;20440;-84
2021/04/24 04:02:59;;;;;;;9.18;4.65;;;1.80;99.90;;;;;;5034887;28;20193;-84
2021/04/24 04:05:31;;;;;;;8.48;4.18;;;1.80;99.90;;;;;;5031029;28;20246;-83
2021/04/24 04:07:58;;;;;;;9.52;5.20;;;1.80;99.90;;;;;;5034542;28;20181;-84
2021/04/24 04:10:25;;;;;;;9.10;6.38;;;1.70;99.90;;;;;;5034843;28;20220;-83
2021/04/24 04:12:53;;;;;;;9.52;4.50;;;1.70;99.90;;;;;;5035047;28;20180;-83
2021/04/24 04:15:22;;;;;;;11.90;5.38;;;1.60;99.90;;;;;;5034681;28;20199;-85
2021/04/24 04:17:52;;;;;;;10.98;4.32;;;1.60;99.90;;;;;;5034839;28;20561;-85
2021/04/24 04:20:19;;;;;;;10.30;6.43;;;1.60;99.90;;;;;;5033189;28;20423;-84
2021/04/24 04:22:45;;;;;;;9.80;5.90;;;1.60;99.90;;;;;;5033269;28;20484;-84
2021/04/24 04:25:13;;;;;;;10.82;5.43;;;1.70;99.90;;;;;;5034480;28;20191;-84
2021/04/24 04:27:39;;;;;;;11.27;6.05;;;1.70;99.90;;;;;;5034542;28;20201;-85
2021/04/24 04:30:08;;;;;;;9.35;6.18;;;1.70;99.90;;;;;;5040160;28;20255;-85
2021/04/24 04:32:35;;;;;;;11.63;6.78;;;1.70;99.90;;;;;;5047958;28;20217;-85
2021/04/24 04:35:01;;;;;;;11.30;5.75;;;1.70;99.90;;;;;;5049579;28;20188;-85
2021/04/24 04:37:27;;;;;;;11.50;7.00;;;1.80;99.90;;;;;;5049856;28;20189;-85
2021/04/24 04:39:54;;;;;;;9.98;6.00;;;1.90;99.90;;;;;;5046800;28;20193;-85
2021/04/24 04:42:20;;;;;;;9.00;6.15;;;1.90;99.90;;;;;;5040950;28;20181;-84
2021/04/24 04:44:46;;;;;;;9.63;6.18;;;1.90;99.90;;;;;;5034787;28;20204;-84
2021/04/24 04:47:12;;;;;;;17.90;7.32;;;2.00;99.90;;;;;;5037889;28;20189;-84
2021/04/24 04:49:40;;;;;;;11.75;7.40;;;2.00;99.90;;;;;;5044417;28;20223;-84
2021/04/24 04:52:06;;;;;;;11.82;7.40;;;2.10;99.90;;;;;;5045661;28;20204;-84
2021/04/24 04:54:32;;;;;;;13.43;5.60;;;2.20;99.90;;;;;;5041830;28;20242;-84
2021/04/24 04:56:59;;;;;;;14.35;6.85;;;2.20;99.90;;;;;;5044879;28;20187;-84
2021/04/24 04:59:27;;;;;;;8.15;6.55;;;2.20;99.90;;;;;;5058081;28;20196;-84
2021/04/24 05:01:53;;;;;;;10.77;6.05;;;2.30;99.90;;;;;;5047826;28;20182;-84
2021/04/24 05:04:20;;;;;;;13.73;6.97;;;2.40;99.90;;;;;;5040624;28;20185;-84
2021/04/24 05:06:49;;;;;;;12.52;6.70;;;2.50;99.90;;;;;;5039996;28;20288;-84
2021/04/24 05:09:15;;;;;;;13.55;6.30;;;2.60;99.90;;;;;;5039793;28;20181;-84
2021/04/24 05:11:41;;;;;;;13.57;6.30;;;2.70;99.90;;;;;;5039580;28;20258;-84
2021/04/24 05:14:08;;;;;;;13.07;7.05;;;2.80;99.90;;;;;;5043567;28;20188;-84
2021/04/24 05:16:34;;;;;;;9.77;5.97;;;2.80;99.90;;;;;;5047005;28;20214;-84
2021/04/24 05:19:00;;;;;;;9.38;7.07;;;2.90;99.90;;;;;;5047148;28;20224;-84
2021/04/24 05:21:27;;;;;;;17.67;8.70;;;3.00;99.90;;;;;;5037504;28;20419;-83
2021/04/24 05:23:54;;;;;;;12.65;8.27;;;3.10;99.90;;;;;;5037819;28;20656;-84
2021/04/24 05:26:21;;;;;;;14.07;6.95;;;3.30;99.90;;;;;;5038427;28;20197;-84
2021/04/24 05:28:47;;;;;;;10.60;6.13;;;3.40;99.90;;;;;;5038826;28;20217;-84
2021/04/24 05:31:13;;;;;;;15.73;7.22;;;3.50;99.90;;;;;;5040079;28;20223;-84
2021/04/24 05:33:40;;;;;;;9.05;6.28;;;3.60;99.90;;;;;;5039687;28;20247;-84
2021/04/24 05:36:10;;;;;;;12.70;8.10;;;3.70;99.90;;;;;;5038185;28;20208;-84
2021/04/24 05:38:36;;;;;;;16.30;9.38;;;3.70;99.90;;;;;;5041581;28;20209;-85
2021/04/24 05:41:03;;;;;;;18.77;7.53;;;3.80;99.90;;;;;;5050731;28;20189;-82
2021/04/24 05:43:29;;;;;;;14.18;7.80;;;3.90;99.90;;;;;;5044393;28;20189;-83
2021/04/24 05:45:56;;;;;;;11.73;7.30;;;4.10;99.90;;;;;;5040543;28;20248;-84
2021/04/24 05:48:22;;;;;;;14.45;6.53;;;4.10;99.90;;;;;;5036148;28;20660;-86
2021/04/24 05:50:50;;;;;;;18.83;7.97;;;4.20;99.90;;;;;;5033888;28;20656;-85
2021/04/24 05:53:16;;;;;;;14.90;8.60;;;4.30;99.90;;;;;;5032561;28;20419;-85
2021/04/24 05:55:42;;;;;;;8.10;6.10;;;4.50;99.90;;;;;;5033745;28;20542;-85
2021/04/24 05:58:10;;;;;;;16.83;7.20;;;4.70;99.90;;;;;;5033418;28;20193;-86
2021/04/24 06:00:36;;;;;;;15.25;8.27;;;4.90;99.90;;;;;;5032624;28;20431;-86
2021/04/24 06:03:02;;;;;;;12.75;8.10;;;5.10;99.90;;;;;;5033484;28;20189;-86
2021/04/24 06:05:28;;;;;;;13.80;8.32;;;5.30;99.90;;;;;;5033370;28;20193;-86
2021/04/24 06:07:55;;;;;;;15.15;7.07;;;5.50;99.90;;;;;;5034224;28;20200;-84
2021/04/24 06:10:21;;;;;;;10.25;5.40;;;5.60;99.90;;;;;;5034184;28;20227;-86
2021/04/24 06:12:48;;;;;;;13.60;7.90;;;5.80;99.90;;;;;;5032114;28;20494;-86
2021/04/24 06:15:19;;;;;;;13.43;6.43;;;5.90;99.90;;;;;;5033527;28;20849;-86
2021/04/24 06:17:46;;;;;;;9.63;5.95;;;6.00;99.90;;;;;;5033539;28;20181;-86
2021/04/24 06:20:13;;;;;;;13.73;7.40;;;6.20;99.90;;;;;;5035867;28;20194;-87
2021/04/24 06:22:41;;;;;;;18.85;5.82;;;6.30;99.90;;;;;;5038198;28;20243;-87
2021/04/24 06:25:09;;;;;;;14.07;5.55;;;6.30;99.90;;;;;;5038629;28;20302;-85
2021/04/24 06:27:35;;;;;;;9.52;6.35;;;6.40;99.90;;;;;;5037604;28;20193;-86
2021/04/24 06:30:02;;;;;;;11.98;6.25;;;6.40;99.90;;;;;;5038839;28;20212;-86
2021/04/24 06:32:29;;;;;;;10.75;5.25;;;6.50;99.90;;;;;;5047422;28;20199;-85
2021/04/24 06:34:55;;;;;;;13.43;6.30;;;6.50;99.90;;;;;;5049085;28;20193;-86
2021/04/24 06:37:22;;;;;;;10.10;7.07;;;6.60;99.90;;;;;;5042578;28;20221;-85
2021/04/24 06:39:48;;;;;;;12.43;6.47;;;6.70;99.90;;;;;;5039664;28;20199;-85
2021/04/24 06:42:15;;;;;;;8.55;5.70;;;6.80;99.90;;;;;;5038972;28;20276;-86
2021/04/24 06:44:42;;;;;;;12.18;7.95;;;6.90;99.90;;;;;;5038164;28;20188;-86
2021/04/24 06:47:08;;;;;;;11.07;5.60;;;7.00;99.90;;;;;;5035332;28;20640;-85
2021/04/24 06:49:35;;;;;;;13.30;7.63;;;7.20;99.90;;;;;;5034902;28;20288;-86
2021/04/24 06:52:02;;;;;;;17.10;7.63;;;7.30;99.90;;;;;;5034438;28;20192;-85
2021/04/24 06:54:28;;;;;;;11.00;6.47;;;7.50;99.90;;;;;;5036513;28;20189;-85
2021/04/24 06:56:54;;;;;;;13.00;7.80;;;7.60;99.90;;;;;;5037333;28;20185;-85
2021/04/24 06:59:20;;;;;;;14.32;7.95;;;7.70;99.90;;;;;;5037460;28;20196;-85
2021/04/24 07:01:47;;;;;;;14.32;7.38;;;7.80;99.90;;;;;;5036645;28;20189;-84
2021/04/24 07:04:13;;;;;;;9.68;5.57;;;7.90;99.90;;;;;;5036642;28;20193;-83
2021/04/24 07:06:40;;;;;;;11.57;6.15;;;8.00;99.90;;;;;;5035452;28;20185;-83
2021/04/24 07:09:07;;;;;;;8.88;6.43;;;8.10;99.90;;;;;;5036888;28;20193;-83
2021/04/24 07:11:35;;;;;;;12.93;6.85;;;8.10;99.90;;;;;;5036051;28;20213;-84
2021/04/24 07:14:01;;;;;;;9.18;7.50;;;8.00;99.90;;;;;;5037684;28;20217;-84
2021/04/24 07:16:27;;;;;;;10.15;6.97;;;8.00;99.90;;;;;;5038149;28;20553;-84
2021/04/24 07:18:54;;;;;;;14.38;9.80;;;8.00;99.90;;;;;;5042621;28;20181;-87
2021/04/24 07:21:20;;;;;;;11.85;6.50;;;8.00;99.90;;;;;;5038693;28;20219;-86
2021/04/24 07:23:50;;;;;;;12.63;7.80;;;8.10;99.90;;;;;;5036722;28;20189;-85
2021/04/24 07:26:16;;;;;;;12.70;7.63;;;8.10;99.90;;;;;;5054919;28;20180;-86
2021/04/24 07:28:43;;;;;;;11.32;8.15;;;8.00;99.90;;;;;;5037543;28;20196;-86
2021/04/24 07:31:09;;;;;;;15.30;10.07;;;8.10;99.90;;;;;;5050717;28;20211;-84
2021/04/24 07:33:36;;;;;;;10.20;7.10;;;8.30;99.90;;;;;;5036774;28;20266;-84
2021/04/24 07:36:02;;;;;;;14.68;8.48;;;8.50;99.90;;;;;;5036632;28;20219;-84
2021/04/24 07:38:29;;;;;;;11.30;8.55;;;8.70;99.90;;;;;;5036894;28;20185;-84
2021/04/24 07:40:56;;;;;;;14.98;7.20;;;8.80;99.90;;;;;;5037620;28;20185;-84
2021/04/24 07:43:22;;;;;;;9.65;5.45;;;8.90;99.90;;;;;;5037488;28;20238;-84
2021/04/24 07:45:48;;;;;;;12.88;5.88;;;9.10;99.90;;;;;;5038185;28;20189;-83
2021/04/24 07:48:15;;;;;;;10.23;6.43;;;9.10;99.90;;;;;;5038719;28;20592;-83
2021/04/24 07:50:41;;;;;;;8.35;5.00;;;8.90;99.90;;;;;;5038705;28;20213;-83
2021/04/24 07:53:07;;;;;;;9.00;5.68;;;8.80;99.90;;;;;;5038610;28;20189;-86
2021/04/24 07:55:34;;;;;;;7.40;5.22;;;8.60;99.90;;;;;;5048602;28;20193;-85
2021/04/24 07:58:01;;;;;;;9.93;5.78;;;8.50;99.90;;;;;;5055358;28;20193;-84
2021/04/24 08:00:27;;;;;;;10.82;6.63;;;8.40;99.90;;;;;;5056892;28;20193;-87
2021/04/24 08:02:53;;;;;;;11.30;6.22;;;8.40;99.90;;;;;;5056433;28;20212;-84
2021/04/24 08:05:20;;;;;;;11.10;6.68;;;8.40;99.90;;;;;;5054883;28;20184;-84
2021/04/24 08:07:47;;;;;;;12.55;6.50;;;8.40;99.90;;;;;;5056916;28;20196;-84
2021/04/24 08:10:14;;;;;;;16.13;8.80;;;8.30;99.90;;;;;;5055434;28;20235;-84
2021/04/24 08:12:41;;;;;;;12.10;8.20;;;8.20;99.90;;;;;;5029634;28;20185;-84
2021/04/24 08:15:10;;;;;;;14.75;9.30;;;8.30;99.90;;;;;;4993026;28;20221;-83
2021/04/24 08:17:38;;;;;;;13.85;8.80;;;8.40;99.90;;;;;;5036519;28;20239;-85
2021/04/24 08:20:06;;;;;;;11.30;7.72;;;8.50;99.90;;;;;;5050556;28;20201;-84
2021/04/24 08:22:32;;;;;;;16.63;8.20;;;8.30;99.90;;;;;;5039114;28;20192;-83
2021/04/24 08:24:58;;;;;;;16.23;9.38;;;8.40;99.90;;;;;;5032803;28;20235;-85
2021/04/24 08:27:25;;;;;;;16.13;8.65;;;8.40;99.90;;;;;;5026500;28;20189;-85
2021/04/24 08:29:51;;;;;;;10.55;7.28;;;8.40;99.90;;;;;;5025550;28;20572;-84
2021/04/24 08:32:18;;;;;;;11.05;7.95;;;8.50;99.90;;;;;;5033080;28;20195;-84
2021/04/24 08:34:44;;;;;;;10.05;6.65;;;8.40;99.90;;;;;;5033969;28;20192;-87
2021/04/24 08:37:10;;;;;;;10.13;6.53;;;8.50;99.90;;;;;;5029761;28;20197;-86
2021/04/24 08:39:37;;;;;;;10.60;6.50;;;8.60;99.90;;;;;;5030735;28;20704;-87
2021/04/24 08:42:04;;;;;;;12.63;7.40;;;8.70;99.90;;;;;;5033660;28;20184;-86
2021/04/24 08:44:32;;;;;;;11.00;7.18;;;8.80;99.90;;;;;;5034894;28;20197;-86
2021/04/24 08:46:58;;;;;;;8.57;6.75;;;8.80;99.90;;;;;;5033815;28;20193;-87
2021/04/24 08:49:27;;;;;;;8.60;5.65;;;9.00;99.90;;;;;;5032842;28;20192;-86
2021/04/24 08:51:54;;;;;;;10.60;6.13;;;9.20;99.90;;;;;;5028315;28;20193;-85
2021/04/24 08:54:22;;;;;;;7.80;5.68;;;9.40;99.90;;;;;;5029540;28;20185;-83
2021/04/24 08:56:49;;;;;;;8.43;5.65;;;9.50;99.90;;;;;;5034227;28;20279;-83
2021/04/24 08:59:15;;;;;;;7.50;5.25;;;9.80;99.90;;;;;;5028889;28;20185;-85
2021/04/24 09:01:42;;;;;;;12.15;6.43;;;10.20;99.90;;;;;;5014320;28;20216;-84
2021/04/24 09:04:08;;;;;;;10.50;5.22;;;10.40;99.90;;;;;;5023561;28;20196;-85
2021/04/24 09:06:35;;;;;;;7.22;5.68;;;10.50;99.90;;;;;;5030986;28;20652;-84
2021/04/24 09:09:05;;;;;;;7.57;5.70;;;10.70;99.90;;;;;;5029593;28;20647;-85
2021/04/24 09:11:39;;;;;;;10.00;7.00;;;10.80;99.90;;;;;;5034581;28;20214;-85
2021/04/24 09:14:07;;;;;;;6.93;5.97;;;10.80;99.90;;;;;;5033041;28;20216;-85
2021/04/24 09:16:35;;;;;;;10.63;6.55;;;11.00;99.90;;;;;;5035261;28;20185;-86
2021/04/24 09:19:01;;;;;;;8.18;5.28;;;11.20;99.90;;;;;;5030150;28;20199;-86
2021/04/24 09:21:29;;;;;;;9.82;5.82;;;11.10;99.90;;;;;;5028884;28;20707;-85
2021/04/24 09:23:57;;;;;;;7.18;4.90;;;11.10;99.90;;;;;;5018554;28;20564;-85
2021/04/24 09:26:25;;;;;;;8.90;4.20;;;11.20;99.90;;;;;;5028361;28;20284;-87
2021/04/24 09:28:59;;;;;;;8.10;6.35;;;11.40;99.90;;;;;;5032537;28;20189;-87
2021/04/24 09:31:27;;;;;;;5.47;4.03;;;11.40;99.90;;;;;;5033181;28;20261;-87
2021/04/24 09:33:55;;;;;;;7.68;4.93;;;11.40;99.90;;;;;;5033505;28;20565;-87
2021/04/24 09:36:23;;;;;;;6.28;4.15;;;11.30;99.90;;;;;;5033023;28;20185;-87
2021/04/24 09:38:52;;;;;;;5.20;3.65;;;11.50;99.90;;;;;;5033982;28;20637;-85
2021/04/24 09:41:21;;;;;;;6.50;4.07;;;11.50;99.90;;;;;;5034132;28;20524;-85
2021/04/24 09:43:54;;;;;;;6.15;4.35;;;11.60;99.90;;;;;;5014420;28;20239;-86
2021/04/24 09:46:21;;;;;;;5.75;4.28;;;11.70;99.90;;;;;;5022767;28;20649;-86
2021/04/24 09:48:47;;;;;;;7.57;5.25;;;11.70;99.90;;;;;;5032871;28;20196;-83
2021/04/24 09:51:15;;;;;;;4.90;3.60;;;11.80;99.90;;;;;;5033137;28;20657;-82
2021/04/24 09:53:52;;;;;;;5.00;3.72;;;11.70;99.90;;;;;;5032460;28;20184;-85
2021/04/24 09:56:19;;;;;;;4.70;2.80;;;11.90;99.90;;;;;;5033052;28;20199;-86
2021/04/24 09:58:45;;;;;;;7.22;4.05;;;12.10;99.90;;;;;;5033363;28;20185;-87
2021/04/24 10:01:26;;;;;;;8.65;4.80;;;12.40;99.90;;;;;;5033179;28;20246;-85
2021/04/24 10:03:54;;;;;;;5.47;3.22;;;12.60;99.90;;;;;;5033230;28;20208;-86
2021/04/24 10:06:25;;;;;;;5.15;3.60;;;12.70;99.90;;;;;;5033372;28;20186;-86
2021/04/24 10:09:07;;;;;;;8.77;3.28;;;12.60;99.90;;;;;;5033647;28;20185;-86
2021/04/24 10:11:34;;;;;;;7.15;2.53;;;12.50;99.90;;;;;;5033084;28;20584;-86
2021/04/24 10:14:01;;;;;;;6.55;4.18;;;12.50;99.90;;;;;;5033685;28;20681;-86
2021/04/24 10:16:36;;;;;;;5.80;3.75;;;12.50;99.90;;;;;;5033344;28;20188;-84
2021/04/24 10:19:04;;;;;;;5.22;3.28;;;12.50;99.90;;;;;;5032909;28;20275;-83
2021/04/24 10:21:31;;;;;;;8.10;2.85;;;12.30;99.90;;;;;;5033640;28;20193;-86
2021/04/24 10:23:58;;;;;;;4.78;3.42;;;12.50;99.90;;;;;;5036726;28;20200;-84
2021/04/24 10:26:25;;;;;;;7.00;3.28;;;12.50;99.90;;;;;;5053836;28;20241;-84
2021/04/24 10:28:53;;;;;;;5.35;2.90;;;12.70;99.90;;;;;;5049193;28;20181;-86
2021/04/24 10:31:19;;;;;;;9.05;3.80;;;12.80;99.90;;;;;;5033721;28;20212;-86
2021/04/24 10:33:47;;;;;;;5.28;4.00;;;12.80;99.90;;;;;;5034037;28;20283;-87
2021/04/24 10:36:13;;;;;;;5.55;3.35;;;12.70;99.90;;;;;;5033706;28;20189;-85
2021/04/24 10:38:43;;;;;;;6.88;3.90;;;12.90;99.90;;;;;;5032311;28;20587;-85
2021/04/24 10:41:10;;;;;;;4.40;3.00;;;12.70;99.90;;;;;;5021483;28;20186;-84
2021/04/24 10:43:38;;;;;;;5.00;4.18;;;12.70;99.90;;;;;;5013442;28;20197;-83
2021/04/24 10:46:29;;;;;;;5.72;3.35;;;12.80;99.90;;;;;;5028071;28;20189;-85
2021/04/24 10:49:14;;;;;;;6.22;4.40;;;12.60;99.90;;;;;;5032524;28;20193;-83
2021/04/24 10:52:08;;;;;;;5.15;2.65;;;13.00;99.90;;;;;;5032317;28;20224;-85
2021/04/24 10:54:38;;;;;;;5.93;3.47;;;13.30;99.90;;;;;;5027057;28;20230;-85
2021/04/24 10:57:40;;;;;;;4.38;3.00;;;13.40;99.90;;;;;;5033642;28;20212;-84
2021/04/24 11:00:08;;;;;;;7.28;3.63;;;13.40;99.90;;;;;;5033157;28;20208;-85
2021/04/24 11:02:40;;;;;;;6.63;3.22;;;13.60;99.90;;;;;;5033628;28;20185;-85
2021/04/24 11:05:23;;;;;;;4.57;3.10;;;13.80;99.90;;;;;;5032903;28;20186;-85
2021/04/24 11:08:19;;;;;;;5.35;3.25;;;13.90;99.90;;;;;;5037768;28;20192;-85
2021/04/24 11:10:47;;;;;;;5.90;4.57;;;13.90;99.90;;;;;;5052500;28;20245;-89
2021/04/24 11:13:15;;;;;;;7.22;5.25;;;14.20;99.90;;;;;;5058664;28;20185;-89
2021/04/24 11:15:42;;;;;;;6.75;5.25;;;14.40;99.90;;;;;;5060216;28;20192;-88
2021/04/24 11:18:12;;;;;;;6.07;4.07;;;14.50;99.90;;;;;;5045105;28;20641;-87
2021/04/24 11:20:49;;;;;;;6.25;3.70;;;14.40;99.90;;;;;;5036319;28;20764;-87
2021/04/24 11:23:44;;;;;;;6.03;4.50;;;14.70;99.90;;;;;;5036762;28;20427;-87
2021/04/24 11:26:19;;;;;;;7.10;4.35;;;14.90;99.90;;;;;;5017320;28;20196;-84
2021/04/24 11:29:10;;;;;;;5.97;3.97;;;15.00;99.90;;;;;;5035443;28;20191;-87
2021/04/24 11:31:59;;;;;;;3.95;3.20;;;15.30;99.90;;;;;;5017471;28;20749;-83
2021/04/24 11:34:30;;;;;;;5.93;3.88;;;15.40;99.90;;;;;;5032618;28;20215;-84
2021/04/24 11:37:26;;;;;;;8.18;3.38;;;15.50;99.90;;;;;;5036628;28;20193;-84
2021/04/24 11:40:19;;;;;;;5.85;3.70;;;16.00;99.90;;;;;;5034742;28;20423;-84
2021/04/24 11:42:56;;;;;;;7.05;4.15;;;16.50;99.90;;;;;;5035004;28;20415;-84
2021/04/24 11:45:48;;;;;;;6.68;4.70;;;17.00;99.90;;;;;;5034656;28;20439;-85
2021/04/24 11:48:16;;;;;;;7.70;4.82;;;17.30;99.90;;;;;;5034705;28;20431;-85
2021/04/24 11:50:45;;;;;;;7.65;4.28;;;17.60;99.90;;;;;;5034570;28;20803;-86
2021/04/24 11:53:13;;;;;;;7.40;4.30;;;17.80;99.90;;;;;;5051221;28;20429;-85
2021/04/24 11:55:40;;;;;;;5.97;4.38;;;18.40;99.90;;;;;;5044983;28;20437;-85
2021/04/24 11:58:08;;;;;;;6.00;3.92;;;18.90;99.90;;;;;;5035033;28;20416;-85
2021/04/24 12:00:35;;;;;;;5.70;3.80;;;19.10;99.90;;;;;;5039703;28;20491;-85
2021/04/24 12:03:01;;;;;;;8.25;4.25;;;19.40;99.90;;;;;;5044112;28;20275;-86
2021/04/24 12:05:28;;;;;;;5.57;4.15;;;19.70;99.90;;;;;;5044503;28;20196;-85
2021/04/24 12:07:56;;;;;;;6.10;4.68;;;19.50;99.90;;;;;;5045176;28;20533;-85
2021/04/24 12:10:27;;;;;;;4.82;3.92;;;19.00;99.90;;;;;;5044177;28;20213;-86
2021/04/24 12:12:53;;;;;;;6.53;4.00;;;19.20;99.90;;;;;;5037457;28;20185;-85
2021/04/24 12:15:22;;;;;;;10.38;3.85;;;19.70;99.90;;;;;;5038282;28;20597;-86
2021/04/24 12:17:49;;;;;;;4.50;3.85;;;20.10;99.90;;;;;;5029548;28;20217;-86
2021/04/24 12:20:20;;;;;;;4.50;3.15;;;20.00;99.90;;;;;;5028940;28;20195;-87
2021/04/24 12:22:46;;;;;;;5.07;3.55;;;20.20;99.90;;;;;;5021736;28;20198;-88
2021/04/24 12:25:15;;;;;;;8.30;4.43;;;20.80;99.90;;;;;;5018331;28;20564;-85
2021/04/24 12:27:42;;;;;;;8.35;4.10;;;20.50;99.50;;;;;;5028514;28;20181;-86
2021/04/24 12:30:17;;;;;;;5.75;3.55;;;20.50;99.90;;;;;;5029601;28;20714;-87
2021/04/24 12:32:45;;;;;;;5.70;3.90;;;20.50;99.40;;;;;;5033796;28;20216;-85
2021/04/24 12:35:18;;;;;;;4.55;3.90;;;20.60;99.20;;;;;;5035645;28;20181;-86
2021/04/24 12:37:46;;;;;;;7.60;3.97;;;20.40;99.80;;;;;;5035505;28;20451;-86
2021/04/24 12:40:17;;;;;;;4.60;3.78;;;20.40;99.90;;;;;;5034161;28;20193;-85
2021/04/24 12:42:44;;;;;;;6.95;4.40;;;20.10;98.80;;;;;;5034292;28;20200;-86
2021/04/24 12:45:17;;;;;;;5.82;4.32;;;19.70;98.10;;;;;;5034602;28;20215;-86
2021/04/24 12:47:44;;;;;;;10.82;4.63;;;19.80;99.10;;;;;;5034915;28;20593;-86
2021/04/24 12:50:19;;;;;;;8.00;4.85;;;20.10;99.00;;;;;;5034535;28;20216;-86
2021/04/24 12:52:49;;;;;;;6.25;4.50;;;19.90;98.50;;;;;;5036579;28;20195;-85
2021/04/24 12:55:17;;;;;;;10.35;5.28;;;19.30;99.30;;;;;;5034886;28;20185;-86